Latest  Newer  Older  Last 2 hours slideshow  Last 24 hours slideshow  Refresh every 5 minutes 
Current image  Latest image  Rain/snow radar  Cloud coverage sat images 

All time is UTC (add 2 hours to UTC in wintertime, 3 hours to UTC in DST for Latvia local time)

2022/06/30 15:20 EVRA 301520Z 11006KT CAVOK 27/20 Q1017 NOSIG
2022/06/30 15:20 EVLA 301520Z AUTO 35003KT 310V050 CAVOK 23/19 Q1016
2022/06/30 15:20 EVVA 301520Z AUTO 32006KT CAVOK 22/20 Q1017
2022/06/30 15:20 EYKA 301520Z 12007KT 080V150 9999 FEW042 29/20 Q1016
2022/06/30 15:20 EYPA 301520Z 35004KT 300V030 CAVOK 24/20 Q1016
2022/06/30 15:20 EYSA 301520Z 12007KT 090V150 CAVOK 27/21 Q1017 NOSIG
2022/06/30 15:20 EYVI 301520Z 12006KT 090V150 CAVOK 27/20 Q1018 NOSIG
2022/06/30 15:20 EEKA 301520Z 07005KT CAVOK 24/20 Q1018
2022/06/30 15:20 EEKE 301520Z 13009KT CAVOK 26/20 Q1018
2022/06/30 15:20 EEPU 301520Z AUTO 10008KT 070V130 9999 BKN230/// 29/18 Q1018
2022/06/30 15:20 EETN 301520Z 06010KT 9999 FEW030CB 26/15 Q1018 NOSIG
2022/06/30 15:20 EETU 301520Z 10007KT 9999 FEW045 27/15 Q1019
   RIGA AIRPORT     EVRA               56 55N  023 58E   10   X     T          6 LV
   LIEPAJA INTL     EVLA        26406  56 31N  021 06E    4   X                8 LV
   VENTPILS         EVVA               57 21N  021 33E    6   X                8 LV
   KAUNAS           EYKA               54 54N  023 55E   77   X     T          6 LT
   PALANGA INTL     EYPA               55 55N  021 03E   10   X                6 LT
   SIAULIAI INTL    EYSA               55 54N  023 24E  135   X     T          6 LT
   VILNIUS INTL     EYVI        26730  54 38N  025 17E  197   X     T          6 LT
   KARDLA           EEKA        26116  58 59N  022 50E    4   X                8 EE
   KURESSAARE       EEKE               58 14N  022 31E    4   X                8 EE
   PARNU            EEPU               58 25N  024 28E   14   X                8 EE
   TALLINN          EETN        26038  59 24N  024 49E   40   X     T          8 EE
   TARTU            EETU               58 19N  026 41E   67   X                8 EE